createdAt,value
2019-02-25T00:01:02.370Z,16.90
2019-02-25T00:03:33.321Z,17.53
2019-02-25T00:06:01.221Z,15.70
2019-02-25T00:08:29.098Z,15.17
2019-02-25T00:10:57.105Z,16.07
2019-02-25T00:13:24.991Z,16.07
2019-02-25T00:15:52.887Z,16.37
2019-02-25T00:18:20.878Z,17.40
2019-02-25T00:20:48.764Z,16.33
2019-02-25T00:23:16.640Z,16.47
2019-02-25T00:25:44.638Z,17.57
2019-02-25T00:28:12.572Z,15.40
2019-02-25T00:30:40.474Z,15.80
2019-02-25T00:33:08.385Z,16.43
2019-02-25T00:35:36.249Z,16.47
2019-02-25T00:38:04.121Z,16.27
2019-02-25T00:40:32.063Z,15.63
2019-02-25T00:42:59.935Z,15.07
2019-02-25T00:45:27.829Z,13.90
2019-02-25T00:47:55.742Z,14.20
2019-02-25T00:50:23.610Z,13.93
2019-02-25T00:52:51.509Z,14.03
2019-02-25T00:55:19.852Z,14.63
2019-02-25T00:57:47.924Z,14.47
2019-02-25T01:00:16.363Z,14.17
2019-02-25T01:02:44.351Z,14.93
2019-02-25T01:05:12.268Z,13.97
2019-02-25T01:07:40.158Z,13.57
2019-02-25T01:10:09.082Z,13.83
2019-02-25T01:12:36.963Z,14.33
2019-02-25T01:15:06.188Z,13.73
2019-02-25T01:17:34.296Z,13.90
2019-02-25T01:20:02.210Z,12.90
2019-02-25T01:22:30.100Z,13.93
2019-02-25T01:24:58.039Z,13.87
2019-02-25T01:27:25.939Z,14.00
2019-02-25T01:29:53.845Z,14.47
2019-02-25T01:32:21.809Z,12.87
2019-02-25T01:34:49.697Z,14.90
2019-02-25T01:37:17.600Z,14.00
2019-02-25T01:39:45.596Z,13.53
2019-02-25T01:42:13.592Z,14.37
2019-02-25T01:44:41.678Z,14.33
2019-02-25T01:47:09.715Z,13.73
2019-02-25T01:49:37.637Z,13.77
2019-02-25T01:52:05.548Z,13.63
2019-02-25T01:54:33.800Z,13.87
2019-02-25T01:57:01.849Z,13.87
2019-02-25T01:59:29.749Z,13.97
2019-02-25T02:01:57.673Z,14.13
2019-02-25T02:04:25.753Z,13.53
2019-02-25T02:06:53.742Z,13.27
2019-02-25T02:09:21.634Z,13.87
2019-02-25T02:11:49.554Z,14.03
2019-02-25T02:14:17.412Z,13.80
2019-02-25T02:16:45.787Z,14.80
2019-02-25T02:19:13.682Z,13.70
2019-02-25T02:21:41.588Z,14.50
2019-02-25T02:24:09.521Z,14.37
2019-02-25T02:26:37.453Z,13.90
2019-02-25T02:29:05.409Z,13.60
2019-02-25T02:31:33.330Z,14.27
2019-02-25T02:34:01.295Z,14.53
2019-02-25T02:36:29.196Z,13.47
2019-02-25T02:38:57.170Z,13.57
2019-02-25T02:41:25.104Z,12.77
2019-02-25T02:43:53.014Z,13.23
2019-02-25T02:46:27.115Z,12.87
2019-02-25T02:48:56.640Z,12.43
2019-02-25T02:51:24.528Z,11.83
2019-02-25T02:53:52.490Z,12.43
2019-02-25T02:56:20.415Z,12.53
2019-02-25T02:58:48.334Z,12.13
2019-02-25T03:01:16.254Z,11.40
2019-02-25T03:03:44.201Z,13.50
2019-02-25T03:06:12.130Z,12.43
2019-02-25T03:08:40.073Z,12.23
2019-02-25T03:11:08.250Z,12.30
2019-02-25T03:13:36.165Z,12.87
2019-02-25T03:16:04.049Z,12.00
2019-02-25T03:18:32.028Z,13.10
2019-02-25T03:20:59.976Z,12.43
2019-02-25T03:23:27.950Z,12.17
2019-02-25T03:25:55.852Z,13.17
2019-02-25T03:28:23.791Z,13.43
2019-02-25T03:30:51.802Z,12.30
2019-02-25T03:33:19.802Z,13.07
2019-02-25T03:35:47.797Z,14.30
2019-02-25T03:38:15.704Z,13.00
2019-02-25T03:40:43.613Z,12.67
2019-02-25T03:43:11.612Z,13.20
2019-02-25T03:45:39.498Z,13.07
2019-02-25T03:48:07.370Z,13.93
2019-02-25T03:50:35.322Z,14.03
2019-02-25T03:53:03.245Z,12.37
2019-02-25T03:55:31.213Z,13.07
2019-02-25T03:57:59.172Z,12.27
2019-02-25T04:00:27.445Z,12.30
2019-02-25T04:02:55.782Z,12.47
2019-02-25T04:05:23.810Z,13.10
2019-02-25T04:07:51.699Z,12.70
2019-02-25T04:10:19.593Z,13.30
2019-02-25T04:12:47.615Z,13.10
2019-02-25T04:15:17.982Z,13.50
2019-02-25T04:17:46.102Z,12.67
2019-02-25T04:20:14.362Z,12.87
2019-02-25T04:22:42.328Z,12.80
2019-02-25T04:25:10.751Z,12.77
2019-02-25T04:27:38.690Z,12.90
2019-02-25T04:30:08.330Z,13.13
2019-02-25T04:32:36.405Z,12.97
2019-02-25T04:35:04.791Z,12.03
2019-02-25T04:37:32.869Z,13.93
2019-02-25T04:40:00.776Z,12.90
2019-02-25T04:42:28.719Z,12.60
2019-02-25T04:44:56.668Z,13.67
2019-02-25T04:47:24.597Z,12.57
2019-02-25T04:49:52.552Z,13.53
2019-02-25T04:52:20.491Z,13.60
2019-02-25T04:54:48.452Z,13.90
2019-02-25T04:57:16.372Z,12.67
2019-02-25T04:59:44.273Z,12.70
2019-02-25T05:02:12.167Z,12.53
2019-02-25T05:04:40.111Z,12.10
2019-02-25T05:07:08.025Z,13.33
2019-02-25T05:09:35.933Z,12.57
2019-02-25T05:12:03.903Z,13.27
2019-02-25T05:14:31.816Z,11.60
2019-02-25T05:16:59.956Z,11.77
2019-02-25T05:19:28.052Z,10.30
2019-02-25T05:21:55.957Z,10.80
2019-02-25T05:24:23.836Z,11.20
2019-02-25T05:26:51.763Z,10.70
2019-02-25T05:29:20.238Z,11.70
2019-02-25T05:31:48.192Z,11.53
2019-02-25T05:34:16.163Z,11.03
2019-02-25T05:36:44.050Z,11.07
2019-02-25T05:39:12.344Z,10.60
2019-02-25T05:41:40.246Z,9.77
2019-02-25T05:44:08.619Z,10.63
2019-02-25T05:46:36.622Z,10.10
2019-02-25T05:49:04.613Z,9.97
2019-02-25T05:51:32.593Z,10.43
2019-02-25T05:54:00.498Z,10.80
2019-02-25T05:56:31.333Z,11.27
2019-02-25T05:58:59.222Z,11.70
2019-02-25T06:01:27.129Z,10.53
2019-02-25T06:03:55.109Z,10.40
2019-02-25T06:06:23.008Z,11.23
2019-02-25T06:08:51.475Z,10.40
2019-02-25T06:11:19.403Z,11.73
2019-02-25T06:13:47.295Z,11.50
2019-02-25T06:16:15.224Z,10.70
2019-02-25T06:18:43.264Z,11.17
2019-02-25T06:21:11.149Z,10.73
2019-02-25T06:23:39.074Z,10.93
2019-02-25T06:26:07.027Z,11.10
2019-02-25T06:28:35.343Z,10.80
2019-02-25T06:31:03.379Z,11.33
2019-02-25T06:33:31.426Z,11.80
2019-02-25T06:35:59.420Z,10.50
2019-02-25T06:38:27.611Z,11.27
2019-02-25T06:40:55.560Z,10.60
2019-02-25T06:43:23.480Z,11.50
2019-02-25T06:45:51.367Z,10.73
2019-02-25T06:48:19.286Z,10.70
2019-02-25T06:50:47.195Z,10.97
2019-02-25T06:53:15.678Z,10.50
2019-02-25T06:55:43.633Z,10.47
2019-02-25T06:58:11.619Z,11.00
2019-02-25T07:00:39.547Z,10.33
2019-02-25T07:03:07.545Z,10.10
2019-02-25T07:05:42.880Z,10.57
2019-02-25T07:08:13.319Z,10.73
2019-02-25T07:10:48.375Z,10.50
2019-02-25T07:13:54.021Z,10.93
2019-02-25T07:16:40.532Z,9.93
2019-02-25T07:19:30.284Z,10.53
2019-02-25T07:22:26.315Z,10.77
2019-02-25T07:25:03.668Z,10.10
2019-02-25T07:28:02.857Z,9.73
2019-02-25T07:30:55.742Z,10.80
2019-02-25T07:33:41.245Z,10.93
2019-02-25T07:36:27.096Z,10.03
2019-02-25T07:39:20.083Z,10.93
2019-02-25T07:42:05.634Z,10.00
2019-02-25T07:44:52.572Z,10.07
2019-02-25T07:47:51.671Z,10.10
2019-02-25T07:50:47.202Z,10.80
2019-02-25T07:53:20.406Z,10.70
2019-02-25T07:56:05.940Z,11.73
2019-02-25T07:59:02.202Z,11.17
2019-02-25T08:01:52.172Z,11.70
2019-02-25T08:04:45.053Z,9.20
2019-02-25T08:07:38.119Z,11.50
2019-02-25T08:10:26.082Z,13.93
2019-02-25T08:13:01.706Z,9.50
2019-02-25T08:15:44.787Z,9.93
2019-02-25T08:18:20.541Z,10.07
2019-02-25T08:21:10.482Z,10.23
2019-02-25T08:23:57.482Z,10.50
2019-02-25T08:26:42.984Z,10.30
2019-02-25T08:29:28.960Z,10.57
2019-02-25T08:32:12.818Z,10.50
2019-02-25T08:34:58.395Z,10.67
2019-02-25T08:37:51.590Z,10.57
2019-02-25T08:40:48.255Z,12.53
2019-02-25T08:43:41.243Z,12.03
2019-02-25T08:46:20.849Z,10.53
2019-02-25T08:48:55.194Z,11.50
2019-02-25T08:51:23.195Z,13.63
2019-02-25T08:53:51.102Z,12.47
2019-02-25T08:56:19.043Z,13.60
2019-02-25T08:58:47.017Z,13.10
2019-02-25T09:01:15.533Z,13.20
2019-02-25T09:03:43.568Z,14.67
2019-02-25T09:06:11.521Z,13.17
2019-02-25T09:08:39.670Z,11.50
2019-02-25T09:11:13.989Z,10.03
2019-02-25T09:13:37.421Z,10.33
2019-02-25T09:16:05.312Z,16.67
2019-02-25T09:18:33.182Z,10.60
2019-02-25T09:21:01.202Z,10.83
2019-02-25T09:23:29.079Z,11.00
2019-02-25T09:25:56.970Z,11.50
2019-02-25T09:28:26.028Z,11.07
2019-02-25T09:30:54.056Z,10.77
2019-02-25T09:33:22.004Z,10.67
2019-02-25T09:35:49.911Z,10.47
2019-02-25T09:38:17.875Z,10.43
2019-02-25T09:40:45.751Z,9.87
2019-02-25T09:43:13.658Z,10.70
2019-02-25T09:45:41.566Z,10.97
2019-02-25T09:48:09.449Z,11.73
2019-02-25T09:50:37.372Z,11.20
2019-02-25T09:53:07.271Z,11.23
2019-02-25T09:55:35.058Z,9.97
2019-02-25T09:58:02.987Z,10.47
2019-02-25T10:00:31.148Z,9.93
2019-02-25T10:02:59.041Z,9.33
2019-02-25T10:05:27.029Z,10.10
2019-02-25T10:07:54.931Z,10.27
2019-02-25T10:10:22.853Z,10.10
2019-02-25T10:12:50.718Z,10.70
2019-02-25T10:15:18.692Z,10.37
2019-02-25T10:17:46.621Z,9.87
2019-02-25T10:20:14.579Z,8.70
2019-02-25T10:22:42.466Z,9.83
2019-02-25T10:25:10.408Z,10.07
2019-02-25T10:27:38.303Z,10.27
2019-02-25T10:30:07.242Z,9.40
2019-02-25T10:32:35.239Z,8.63
2019-02-25T10:35:03.137Z,9.27
2019-02-25T10:37:30.998Z,7.90
2019-02-25T10:39:58.928Z,7.83
2019-02-25T10:42:27.542Z,7.70
2019-02-25T10:44:56.436Z,7.80
2019-02-25T10:47:24.425Z,7.70
2019-02-25T10:49:52.313Z,7.67
2019-02-25T10:52:20.231Z,7.93
2019-02-25T10:54:49.854Z,7.10
2019-02-25T10:57:21.306Z,7.00
2019-02-25T10:59:48.782Z,6.60
2019-02-25T11:02:17.499Z,5.60
2019-02-25T11:04:47.461Z,5.53
2019-02-25T11:07:16.097Z,4.70
2019-02-25T11:10:13.853Z,5.43
2019-02-25T11:12:41.812Z,6.33
2019-02-25T11:15:11.542Z,7.13
2019-02-25T11:17:39.501Z,6.77
2019-02-25T11:20:08.303Z,5.60
2019-02-25T11:22:38.044Z,5.80
2019-02-25T11:25:05.978Z,6.37
2019-02-25T11:27:35.854Z,6.07
2019-02-25T11:30:03.566Z,5.80
2019-02-25T11:32:32.236Z,6.37
2019-02-25T11:35:01.389Z,6.50
2019-02-25T11:37:29.885Z,6.80
2019-02-25T11:39:59.370Z,6.67
2019-02-25T11:42:27.401Z,5.90
2019-02-25T11:44:57.099Z,6.40
2019-02-25T11:47:25.075Z,5.73
2019-02-25T11:49:53.036Z,5.70
2019-02-25T11:52:20.933Z,6.17
2019-02-25T11:54:48.814Z,6.53
2019-02-25T11:57:16.892Z,6.53
2019-02-25T11:59:44.889Z,6.00
2019-02-25T12:02:12.860Z,5.67
2019-02-25T12:04:40.772Z,5.43
2019-02-25T12:07:08.766Z,6.37
2019-02-25T12:09:36.798Z,6.27
2019-02-25T12:12:04.742Z,5.77
2019-02-25T12:14:32.674Z,5.60
2019-02-25T12:17:00.912Z,5.50
2019-02-25T12:19:28.869Z,5.37
2019-02-25T12:21:56.803Z,4.87
2019-02-25T12:24:24.811Z,4.90
2019-02-25T12:26:52.888Z,5.37
2019-02-25T12:29:21.223Z,4.67
2019-02-25T12:31:49.290Z,5.00
2019-02-25T12:34:17.412Z,4.90
2019-02-25T12:36:45.446Z,4.60
2019-02-25T12:39:13.471Z,4.33
2019-02-25T12:41:41.382Z,4.77
2019-02-25T12:44:09.556Z,4.70
2019-02-25T12:46:37.460Z,4.63
2019-02-25T12:49:05.436Z,5.03
2019-02-25T12:51:33.314Z,4.53
2019-02-25T12:54:01.471Z,3.73
2019-02-25T12:56:29.334Z,3.53
2019-02-25T12:58:57.226Z,4.17
2019-02-25T13:01:25.293Z,4.13
2019-02-25T13:03:53.187Z,3.83
2019-02-25T13:06:21.049Z,3.93
2019-02-25T13:08:49.117Z,3.60
2019-02-25T13:11:17.290Z,3.60
2019-02-25T13:13:45.251Z,4.00
2019-02-25T13:16:13.319Z,3.87
2019-02-25T13:18:41.211Z,4.07
2019-02-25T13:21:11.849Z,4.07
2019-02-25T13:23:39.837Z,3.80
2019-02-25T13:26:07.851Z,3.90
2019-02-25T13:28:35.845Z,3.63
2019-02-25T13:31:05.637Z,3.53
2019-02-25T13:33:33.882Z,4.07
2019-02-25T13:36:04.959Z,4.30
2019-02-25T13:38:33.352Z,4.43
2019-02-25T13:41:01.474Z,3.90
2019-02-25T13:43:29.418Z,3.83
2019-02-25T13:45:57.547Z,4.03
2019-02-25T13:48:25.423Z,4.43
2019-02-25T13:50:53.385Z,3.93
2019-02-25T13:53:21.547Z,4.13
2019-02-25T13:55:49.575Z,4.63
2019-02-25T13:58:17.561Z,4.20
2019-02-25T14:00:45.627Z,4.33
2019-02-25T14:03:13.574Z,4.43
2019-02-25T14:05:41.753Z,4.60
2019-02-25T14:08:09.670Z,4.60
2019-02-25T14:10:37.582Z,3.67
2019-02-25T14:13:05.609Z,5.10
2019-02-25T14:15:33.685Z,4.30
2019-02-25T14:18:01.622Z,4.70
2019-02-25T14:20:29.606Z,4.90
2019-02-25T14:23:00.188Z,5.00
2019-02-25T14:25:27.543Z,4.47
2019-02-25T14:27:55.810Z,4.80
2019-02-25T14:30:24.110Z,5.07
2019-02-25T14:32:53.522Z,4.47
2019-02-25T14:35:23.182Z,3.50
2019-02-25T14:37:51.433Z,3.67
2019-02-25T14:40:21.322Z,5.13
2019-02-25T14:42:51.363Z,4.60
2019-02-25T14:45:21.965Z,3.47
2019-02-25T14:47:55.332Z,3.03
2019-02-25T14:50:20.886Z,3.87
2019-02-25T14:52:49.144Z,5.03
2019-02-25T14:55:17.133Z,4.80
2019-02-25T14:57:45.092Z,4.40
2019-02-25T15:00:15.587Z,4.83
2019-02-25T15:02:45.499Z,4.20
2019-02-25T15:05:15.040Z,3.43
2019-02-25T15:07:44.557Z,5.00
2019-02-25T15:10:12.508Z,4.80
2019-02-25T15:12:40.504Z,4.83
2019-02-25T15:15:10.295Z,5.40
2019-02-25T15:17:38.395Z,5.00
2019-02-25T15:20:06.492Z,5.30
2019-02-25T15:22:36.293Z,5.30
2019-02-25T15:25:04.795Z,4.93
2019-02-25T15:27:32.778Z,5.47
2019-02-25T15:30:00.739Z,5.97
2019-02-25T15:32:29.551Z,5.23
2019-02-25T15:34:58.851Z,5.43
2019-02-25T15:37:26.804Z,5.37
2019-02-25T15:39:55.893Z,5.20
2019-02-25T15:42:26.052Z,5.00
2019-02-25T15:44:55.547Z,5.00
2019-02-25T15:47:24.009Z,4.83
2019-02-25T15:49:51.993Z,4.97
2019-02-25T15:52:21.073Z,5.43
2019-02-25T15:54:49.639Z,4.90
2019-02-25T15:57:17.637Z,6.23
2019-02-25T15:59:45.627Z,5.53
2019-02-25T16:02:14.341Z,5.60
2019-02-25T16:04:42.563Z,5.60
2019-02-25T16:07:11.066Z,5.03
2019-02-25T16:09:39.169Z,5.33
2019-02-25T16:12:07.948Z,4.80
2019-02-25T16:14:38.820Z,5.07
2019-02-25T16:17:06.463Z,5.30
2019-02-25T16:19:43.599Z,5.67
2019-02-25T16:22:07.431Z,6.20
2019-02-25T16:24:34.163Z,5.60
2019-02-25T16:27:02.678Z,5.13
2019-02-25T16:29:31.721Z,5.13
2019-02-25T16:32:01.859Z,4.97
2019-02-25T16:34:29.690Z,4.77
2019-02-25T16:36:59.892Z,5.30
2019-02-25T16:39:27.779Z,5.17
2019-02-25T16:41:55.727Z,5.70
2019-02-25T16:44:23.696Z,5.70
2019-02-25T16:46:53.887Z,5.90
2019-02-25T16:49:21.324Z,5.70
2019-02-25T16:51:50.921Z,6.03
2019-02-25T16:54:20.701Z,5.63
2019-02-25T16:56:48.537Z,5.60
2019-02-25T16:59:18.502Z,5.93
2019-02-25T17:01:46.250Z,5.70
2019-02-25T17:04:16.092Z,6.30
2019-02-25T17:06:44.030Z,5.97
2019-02-25T17:09:16.168Z,5.87
2019-02-25T17:11:45.987Z,6.00
2019-02-25T17:14:14.898Z,6.07
2019-02-25T17:16:43.608Z,6.00
2019-02-25T17:19:11.678Z,6.63
2019-02-25T17:21:42.953Z,6.60
2019-02-25T17:24:09.853Z,7.47
2019-02-25T17:26:37.900Z,7.00
2019-02-25T17:29:05.901Z,7.50
2019-02-25T17:31:36.626Z,6.83
2019-02-25T17:34:05.641Z,6.53
2019-02-25T17:36:33.746Z,6.33
2019-02-25T17:39:01.845Z,5.27
2019-02-25T17:41:30.481Z,6.37
2019-02-25T17:43:59.242Z,6.60
2019-02-25T17:46:28.822Z,6.37
2019-02-25T17:48:57.864Z,7.00
2019-02-25T17:51:27.040Z,7.27
2019-02-25T17:53:55.466Z,7.10
2019-02-25T17:56:25.228Z,7.83
2019-02-25T17:58:53.517Z,7.47
2019-02-25T18:01:23.628Z,7.37
2019-02-25T18:03:51.388Z,7.67
2019-02-25T18:06:20.134Z,9.37
2019-02-25T18:08:50.877Z,8.77
2019-02-25T18:11:20.278Z,7.50
2019-02-25T18:13:49.028Z,8.43
2019-02-25T18:16:18.956Z,7.77
2019-02-25T18:18:47.844Z,8.43
2019-02-25T18:21:16.846Z,7.83
2019-02-25T18:23:46.625Z,7.77
2019-02-25T18:26:15.382Z,8.83
2019-02-25T18:28:44.314Z,8.27
2019-02-25T18:31:13.600Z,8.10
2019-02-25T18:33:42.424Z,7.53
2019-02-25T18:36:12.594Z,8.80
2019-02-25T18:38:45.921Z,7.97
2019-02-25T18:41:12.627Z,8.40
2019-02-25T18:43:46.774Z,8.47
2019-02-25T18:46:13.965Z,8.70
2019-02-25T18:48:42.812Z,9.17
2019-02-25T18:51:12.097Z,8.87
2019-02-25T18:53:40.668Z,9.23
2019-02-25T18:56:11.641Z,10.10
2019-02-25T18:58:41.228Z,9.80
2019-02-25T19:01:13.303Z,10.30
2019-02-25T19:03:39.854Z,10.30
2019-02-25T19:06:08.332Z,9.83
2019-02-25T19:08:36.918Z,9.87
2019-02-25T19:11:05.510Z,9.87
2019-02-25T19:13:33.506Z,9.83
2019-02-25T19:16:03.153Z,9.57
2019-02-25T19:18:32.106Z,10.23
2019-02-25T19:21:02.117Z,10.07
2019-02-25T19:23:31.257Z,10.67
2019-02-25T19:26:01.313Z,10.27
2019-02-25T19:28:30.308Z,10.13
2019-02-25T19:30:58.328Z,10.50
2019-02-25T19:33:26.371Z,10.43
2019-02-25T19:35:56.677Z,10.90
2019-02-25T19:38:24.147Z,10.20
2019-02-25T19:40:53.519Z,9.97
2019-02-25T19:43:22.070Z,9.87
2019-02-25T19:45:50.162Z,10.50
2019-02-25T19:48:19.404Z,11.27
2019-02-25T19:50:51.469Z,10.70
2019-02-25T19:53:20.235Z,11.33
2019-02-25T19:55:49.352Z,10.93
2019-02-25T19:58:17.811Z,11.03
2019-02-25T20:00:45.905Z,10.93
2019-02-25T20:03:13.926Z,11.13
2019-02-25T20:05:44.199Z,11.43
2019-02-25T20:08:12.732Z,10.77
2019-02-25T20:10:40.784Z,11.30
2019-02-25T20:13:08.949Z,11.00
2019-02-25T20:15:39.658Z,11.30
2019-02-25T20:18:07.693Z,11.70
2019-02-25T20:20:38.476Z,11.90
2019-02-25T20:23:08.394Z,10.87
2019-02-25T20:25:36.329Z,12.03
2019-02-25T20:28:04.763Z,11.57
2019-02-25T20:30:32.760Z,12.40
2019-02-25T20:33:01.246Z,12.33
2019-02-25T20:35:31.334Z,12.00
2019-02-25T20:38:00.367Z,11.17
2019-02-25T20:40:30.501Z,11.93
2019-02-25T20:43:00.935Z,12.33
2019-02-25T20:45:30.455Z,12.00
2019-02-25T20:47:59.697Z,11.60
2019-02-25T20:50:28.116Z,12.37
2019-02-25T20:52:58.228Z,12.80
2019-02-25T20:55:27.157Z,12.33
2019-02-25T20:57:55.627Z,12.20
2019-02-25T21:00:23.663Z,11.73
2019-02-25T21:02:51.766Z,11.67
2019-02-25T21:05:22.250Z,12.33
2019-02-25T21:07:50.477Z,11.63
2019-02-25T21:10:19.586Z,10.70
2019-02-25T21:12:47.573Z,12.33
2019-02-25T21:15:15.473Z,11.10
2019-02-25T21:17:43.722Z,11.43
2019-02-25T21:20:12.403Z,13.23
2019-02-25T21:22:40.477Z,12.40
2019-02-25T21:25:08.798Z,12.93
2019-02-25T21:27:38.691Z,11.97
2019-02-25T21:30:08.269Z,11.87
2019-02-25T21:32:36.219Z,12.70
2019-02-25T21:35:05.087Z,13.20
2019-02-25T21:37:33.110Z,12.20
2019-02-25T21:40:02.942Z,12.13
2019-02-25T21:42:30.818Z,12.17
2019-02-25T21:45:00.177Z,10.97
2019-02-25T21:47:29.159Z,11.87
2019-02-25T21:49:59.099Z,12.47
2019-02-25T21:52:27.765Z,12.07
2019-02-25T21:54:58.002Z,13.33
2019-02-25T21:57:27.536Z,12.93
2019-02-25T21:59:56.375Z,12.47
2019-02-25T22:02:25.270Z,13.83
2019-02-25T22:04:54.062Z,12.47
2019-02-25T22:07:25.017Z,12.97
2019-02-25T22:09:52.101Z,12.83
2019-02-25T22:12:20.097Z,12.90
2019-02-25T22:14:49.743Z,13.23
2019-02-25T22:17:20.054Z,13.60
2019-02-25T22:19:48.115Z,13.03
2019-02-25T22:22:17.030Z,13.73
2019-02-25T22:24:45.190Z,14.00
2019-02-25T22:27:14.152Z,14.63
2019-02-25T22:29:43.541Z,13.50
2019-02-25T22:32:12.503Z,14.10
2019-02-25T22:34:41.589Z,13.87
2019-02-25T22:37:12.395Z,12.97
2019-02-25T22:39:40.931Z,14.10
2019-02-25T22:42:09.599Z,14.63
2019-02-25T22:44:38.612Z,12.97
2019-02-25T22:47:09.188Z,13.37
2019-02-25T22:49:36.169Z,13.10
2019-02-25T22:52:05.588Z,13.17
2019-02-25T22:54:37.050Z,14.13
2019-02-25T22:57:03.426Z,14.00
2019-02-25T22:59:35.033Z,13.20
2019-02-25T23:02:01.091Z,14.03
2019-02-25T23:04:29.013Z,13.87
2019-02-25T23:06:57.074Z,13.73
2019-02-25T23:09:25.807Z,13.90
2019-02-25T23:11:55.502Z,14.63
2019-02-25T23:14:23.816Z,13.93
2019-02-25T23:16:51.766Z,13.70
2019-02-25T23:19:20.253Z,14.93
2019-02-25T23:21:49.706Z,15.43
2019-02-25T23:24:17.751Z,14.60
2019-02-25T23:26:46.096Z,15.93
2019-02-25T23:29:15.521Z,15.67
2019-02-25T23:31:46.437Z,15.60
2019-02-25T23:34:15.350Z,14.97
2019-02-25T23:36:44.834Z,15.03
2019-02-25T23:39:12.780Z,14.63
2019-02-25T23:41:41.485Z,13.57
2019-02-25T23:44:12.511Z,14.17
2019-02-25T23:46:40.094Z,13.70
2019-02-25T23:49:08.178Z,14.27
2019-02-25T23:51:37.712Z,14.40
2019-02-25T23:54:05.848Z,14.27
2019-02-25T23:59:22.665Z,13.40
